Time;durP1;ratioP1;P1;durP2;ratioP2;P2;SDS_P1;SDS_P2;PMS_P1;PMS_P2;Temp;Humidity;BMP_temperature;BMP_pressure;BME280_temperature;BME280_humidity;BME280_pressure;Samples;Min_cycle;Max_cycle;Signal;HPM_P1;HPM_P2
2022/10/25 00:00:45;;;;;;;7.10;1.80;;;;;;;;;;5032149;28;20034;-62
2022/10/25 00:03:11;;;;;;;8.80;3.10;;;;;;;;;;5031632;28;20030;-63
2022/10/25 00:05:38;;;;;;;11.25;1.58;;;;;;;;;;5032330;28;20482;-63
2022/10/25 00:08:05;;;;;;;6.32;1.20;;;;;;;;;;5032001;28;20553;-63
2022/10/25 00:10:31;;;;;;;7.13;1.40;;;;;;;;;;5031592;28;20442;-63
2022/10/25 00:12:57;;;;;;;5.47;1.30;;;;;;;;;;5031565;28;20079;-63
2022/10/25 00:15:23;;;;;;;6.88;1.90;;;;;;;;;;5031158;28;20033;-63
2022/10/25 00:17:50;;;;;;;5.35;1.65;;;;;;;;;;5034674;28;20108;-63
2022/10/25 00:20:16;;;;;;;5.72;1.45;;;;;;;;;;5035257;28;20029;-63
2022/10/25 00:22:42;;;;;;;5.75;1.60;;;;;;;;;;5035166;28;20030;-63
2022/10/25 00:25:08;;;;;;;6.82;1.80;;;;;;;;;;5034914;28;20429;-63
2022/10/25 00:27:35;;;;;;;8.07;1.40;;;;;;;;;;5035461;28;20037;-63
2022/10/25 00:30:01;;;;;;;7.35;1.60;;;;;;;;;;5035238;28;20504;-62
2022/10/25 00:32:27;;;;;;;6.68;1.35;;;;;;;;;;5035549;28;20040;-62
2022/10/25 00:34:54;;;;;;;10.98;1.70;;;;;;;;;;5035272;28;20029;-62
2022/10/25 00:37:20;;;;;;;6.75;1.50;;;;;;;;;;5034866;28;20513;-63
2022/10/25 00:39:46;;;;;;;8.73;2.20;;;;;;;;;;5034117;28;20016;-62
2022/10/25 00:42:23;;;;;;;14.60;1.70;;;;;;;;;;5035610;28;20063;-62
2022/10/25 00:44:49;;;;;;;8.40;1.63;;;;;;;;;;5035006;28;20035;-62
2022/10/25 00:47:21;;;;;;;10.25;1.60;;;;;;;;;;5034272;28;20520;-62
2022/10/25 00:50:05;;;;;;;6.95;1.92;;;;;;;;;;5034946;28;20508;-62
2022/10/25 00:52:33;;;;;;;8.30;1.58;;;;;;;;;;5029766;28;20057;-62
2022/10/25 00:55:00;;;;;;;9.25;2.33;;;;;;;;;;5034377;28;20032;-62
2022/10/25 00:57:29;;;;;;;11.18;2.00;;;;;;;;;;5034548;28;20026;-63
2022/10/25 00:59:55;;;;;;;12.55;1.80;;;;;;;;;;5034740;28;20034;-63
2022/10/25 01:02:21;;;;;;;8.20;1.77;;;;;;;;;;5034410;28;20116;-63
2022/10/25 01:04:48;;;;;;;8.52;1.92;;;;;;;;;;5034496;28;20032;-63
2022/10/25 01:07:14;;;;;;;9.57;2.08;;;;;;;;;;5034401;28;20355;-63
2022/10/25 01:09:41;;;;;;;11.80;2.25;;;;;;;;;;5034300;28;20025;-62
2022/10/25 01:12:07;;;;;;;7.50;1.60;;;;;;;;;;5034272;28;20049;-63
2022/10/25 01:14:37;;;;;;;9.63;2.13;;;;;;;;;;5034250;28;20041;-63
2022/10/25 01:17:03;;;;;;;4.05;2.33;;;;;;;;;;5034597;28;20029;-63
2022/10/25 01:19:29;;;;;;;15.30;1.95;;;;;;;;;;5019053;28;20034;-63
2022/10/25 01:22:03;;;;;;;6.65;1.83;;;;;;;;;;5034340;28;20105;-63
2022/10/25 01:24:29;;;;;;;9.02;1.30;;;;;;;;;;5034215;28;20029;-63
2022/10/25 01:27:02;;;;;;;6.88;1.27;;;;;;;;;;5034218;28;20044;-63
2022/10/25 01:29:28;;;;;;;;;;;;;;;;;;5033409;28;20033;-63
2022/10/25 01:31:57;;;;;;;8.40;1.60;;;;;;;;;;5034153;28;19928;-63
2022/10/25 01:34:26;;;;;;;9.27;1.30;;;;;;;;;;5034049;28;20033;-63
2022/10/25 01:37:10;;;;;;;10.40;1.63;;;;;;;;;;5034271;28;20066;-63
2022/10/25 01:39:43;;;;;;;8.52;1.63;;;;;;;;;;5033466;28;20029;-63
2022/10/25 01:42:18;;;;;;;8.90;1.33;;;;;;;;;;5034081;28;20064;-63
2022/10/25 01:44:54;;;;;;;4.25;1.85;;;;;;;;;;5033696;28;20037;-63
2022/10/25 01:47:23;;;;;;;7.32;1.48;;;;;;;;;;5033728;28;20490;-63
2022/10/25 01:49:55;;;;;;;8.48;1.35;;;;;;;;;;5034095;28;20108;-63
2022/10/25 01:52:22;;;;;;;7.77;1.53;;;;;;;;;;5033369;28;20017;-63
2022/10/25 01:54:48;;;;;;;8.68;1.00;;;;;;;;;;5033525;28;20036;-63
2022/10/25 01:57:20;;;;;;;12.80;2.03;;;;;;;;;;5033627;28;20175;-63
2022/10/25 02:00:00;;;;;;;3.90;1.17;;;;;;;;;;5028379;28;20029;-63
2022/10/25 02:02:45;;;;;;;5.60;1.10;;;;;;;;;;5033759;28;20414;-63
2022/10/25 02:05:14;;;;;;;4.05;1.10;;;;;;;;;;5033699;28;20033;-63
2022/10/25 02:07:52;;;;;;;10.77;1.35;;;;;;;;;;5033078;28;20033;-63
2022/10/25 02:10:23;;;;;;;10.73;2.28;;;;;;;;;;5033248;28;20543;-63
2022/10/25 02:13:01;;;;;;;9.73;1.88;;;;;;;;;;5033207;28;20512;-63
2022/10/25 02:15:36;;;;;;;12.05;1.85;;;;;;;;;;5033332;28;20478;-63
2022/10/25 02:18:04;;;;;;;9.98;1.48;;;;;;;;;;5033421;28;20362;-63
2022/10/25 02:20:32;;;;;;;7.90;1.50;;;;;;;;;;5033256;28;20053;-63
2022/10/25 02:23:00;;;;;;;10.52;1.75;;;;;;;;;;5032846;28;20116;-63
2022/10/25 02:25:26;;;;;;;16.38;1.50;;;;;;;;;;5033007;28;20037;-63
2022/10/25 02:27:53;;;;;;;12.15;1.83;;;;;;;;;;5033192;28;20099;-63
2022/10/25 02:30:19;;;;;;;10.45;1.60;;;;;;;;;;5032975;28;20104;-63
2022/10/25 02:32:46;;;;;;;11.55;1.90;;;;;;;;;;5032712;28;20112;-63
2022/10/25 02:35:16;;;;;;;17.08;2.08;;;;;;;;;;5033186;28;20025;-63
2022/10/25 02:37:42;;;;;;;6.85;1.60;;;;;;;;;;5032403;28;20033;-63
2022/10/25 02:40:08;;;;;;;8.35;2.55;;;;;;;;;;5032640;28;20017;-63
2022/10/25 02:42:34;;;;;;;12.80;1.73;;;;;;;;;;5036785;28;20029;-63
2022/10/25 02:45:01;;;;;;;13.50;2.60;;;;;;;;;;5032976;28;20044;-63
2022/10/25 02:47:27;;;;;;;8.68;1.52;;;;;;;;;;5032886;28;20033;-63
2022/10/25 02:49:53;;;;;;;11.77;2.28;;;;;;;;;;5016389;28;20029;-63
2022/10/25 02:52:19;;;;;;;14.98;2.10;;;;;;;;;;5032684;28;20037;-63
2022/10/25 02:54:45;;;;;;;17.70;1.98;;;;;;;;;;5032485;28;20478;-63
2022/10/25 02:57:11;;;;;;;16.80;2.58;;;;;;;;;;5033009;28;20053;-63
2022/10/25 02:59:37;;;;;;;14.05;1.73;;;;;;;;;;5032351;28;20373;-63
2022/10/25 03:02:03;;;;;;;12.73;2.10;;;;;;;;;;5032274;28;20044;-63
2022/10/25 03:04:29;;;;;;;12.05;1.70;;;;;;;;;;5032432;28;20025;-63
2022/10/25 03:06:56;;;;;;;9.45;1.50;;;;;;;;;;5032277;28;20058;-63
2022/10/25 03:09:22;;;;;;;11.43;1.85;;;;;;;;;;5032401;28;20074;-63
2022/10/25 03:11:48;;;;;;;10.40;2.00;;;;;;;;;;5032005;28;20050;-63
2022/10/25 03:14:14;;;;;;;13.07;2.63;;;;;;;;;;5032458;28;20180;-63
2022/10/25 03:16:41;;;;;;;11.35;2.05;;;;;;;;;;5032430;28;20037;-63
2022/10/25 03:19:07;;;;;;;13.60;2.75;;;;;;;;;;5019818;28;20032;-63
2022/10/25 03:21:33;;;;;;;13.38;1.80;;;;;;;;;;5028719;28;20026;-63
2022/10/25 03:23:59;;;;;;;15.93;2.10;;;;;;;;;;5027399;28;20025;-63
2022/10/25 03:26:25;;;;;;;5.28;1.73;;;;;;;;;;5013774;28;20112;-63
2022/10/25 03:28:51;;;;;;;5.93;1.80;;;;;;;;;;5030000;28;20021;-63
2022/10/25 03:31:19;;;;;;;4.32;1.52;;;;;;;;;;5023027;28;20029;-63
2022/10/25 03:33:45;;;;;;;13.43;2.30;;;;;;;;;;5024229;28;20037;-63
2022/10/25 03:36:12;;;;;;;6.97;1.92;;;;;;;;;;5033539;28;20363;-63
2022/10/25 03:38:38;;;;;;;11.98;1.90;;;;;;;;;;5027502;28;20506;-63
2022/10/25 03:41:04;;;;;;;12.73;1.98;;;;;;;;;;5024772;28;20393;-63
2022/10/25 03:43:30;;;;;;;14.02;2.17;;;;;;;;;;5030103;28;20032;-63
2022/10/25 03:45:57;;;;;;;11.02;2.08;;;;;;;;;;5021912;28;20021;-63
2022/10/25 03:48:23;;;;;;;6.55;1.60;;;;;;;;;;5029170;28;20021;-63
2022/10/25 03:50:49;;;;;;;10.07;1.67;;;;;;;;;;5023031;28;20021;-63
2022/10/25 03:53:15;;;;;;;6.65;1.55;;;;;;;;;;5028340;28;20033;-63
2022/10/25 03:55:41;;;;;;;10.18;1.50;;;;;;;;;;5031598;28;20043;-63
2022/10/25 03:58:07;;;;;;;6.78;1.38;;;;;;;;;;5033109;28;20362;-63
2022/10/25 04:00:33;;;;;;;7.05;1.42;;;;;;;;;;5025579;28;20026;-63
2022/10/25 04:03:01;;;;;;;7.32;1.67;;;;;;;;;;5025719;28;20112;-63
2022/10/25 04:05:27;;;;;;;14.63;1.50;;;;;;;;;;5032546;28;20112;-63
2022/10/25 04:07:53;;;;;;;4.22;1.70;;;;;;;;;;5024115;28;20029;-63
2022/10/25 04:10:19;;;;;;;12.80;2.97;;;;;;;;;;5031605;28;20386;-63
2022/10/25 04:12:46;;;;;;;9.38;1.60;;;;;;;;;;5033320;28;20484;-63
2022/10/25 04:15:12;;;;;;;6.90;1.50;;;;;;;;;;5027906;28;20026;-63
2022/10/25 04:17:39;;;;;;;10.88;1.73;;;;;;;;;;5035614;28;20128;-63
2022/10/25 04:20:05;;;;;;;10.77;2.15;;;;;;;;;;5034985;28;20083;-63
2022/10/25 04:22:31;;;;;;;13.15;2.35;;;;;;;;;;5035148;28;20029;-63
2022/10/25 04:24:58;;;;;;;12.30;2.83;;;;;;;;;;5040690;28;20037;-63
2022/10/25 04:27:24;;;;;;;8.25;1.70;;;;;;;;;;5041666;28;20030;-63
2022/10/25 04:29:50;;;;;;;10.82;1.85;;;;;;;;;;5034021;28;20045;-63
2022/10/25 04:32:16;;;;;;;11.35;1.83;;;;;;;;;;5033918;28;20053;-63
2022/10/25 04:34:42;;;;;;;13.52;2.40;;;;;;;;;;5034944;28;20433;-63
2022/10/25 04:37:08;;;;;;;10.82;1.88;;;;;;;;;;5034178;28;20014;-63
2022/10/25 04:39:34;;;;;;;9.65;1.77;;;;;;;;;;5033012;28;20436;-63
2022/10/25 04:42:00;;;;;;;13.77;2.25;;;;;;;;;;5032583;28;20056;-63
2022/10/25 04:44:26;;;;;;;11.63;3.28;;;;;;;;;;5034960;28;20108;-63
2022/10/25 04:46:52;;;;;;;12.07;2.28;;;;;;;;;;5034447;28;20033;-63
2022/10/25 04:49:18;;;;;;;17.73;2.20;;;;;;;;;;5026885;28;20493;-63
2022/10/25 04:51:44;;;;;;;11.02;1.88;;;;;;;;;;5034755;28;20029;-63
2022/10/25 04:54:13;;;;;;;15.35;2.72;;;;;;;;;;5033994;28;20025;-63
2022/10/25 04:56:40;;;;;;;16.85;1.90;;;;;;;;;;5034534;28;20030;-63
2022/10/25 04:59:06;;;;;;;13.48;1.90;;;;;;;;;;5034211;28;20042;-62
2022/10/25 05:01:32;;;;;;;10.30;2.85;;;;;;;;;;5034144;28;20087;-62
2022/10/25 05:03:58;;;;;;;14.00;2.13;;;;;;;;;;5034078;28;20064;-62
2022/10/25 05:06:26;;;;;;;13.73;1.90;;;;;;;;;;5034696;28;20038;-62
2022/10/25 05:08:53;;;;;;;7.03;1.65;;;;;;;;;;5034502;28;20116;-62
2022/10/25 05:11:20;;;;;;;4.95;1.95;;;;;;;;;;5033581;28;20044;-62
2022/10/25 05:13:46;;;;;;;10.30;1.98;;;;;;;;;;5034452;28;20025;-63
2022/10/25 05:16:20;;;;;;;13.75;2.42;;;;;;;;;;5033777;28;20030;-63
2022/10/25 05:18:46;;;;;;;8.07;2.00;;;;;;;;;;5033438;28;20056;-63
2022/10/25 05:21:13;;;;;;;9.60;1.88;;;;;;;;;;5033671;28;20030;-63
2022/10/25 05:23:39;;;;;;;12.43;1.92;;;;;;;;;;5032744;28;20375;-63
2022/10/25 05:26:05;;;;;;;9.02;1.77;;;;;;;;;;5033916;28;20041;-63
2022/10/25 05:28:32;;;;;;;12.15;2.03;;;;;;;;;;5033008;28;20536;-63
2022/10/25 05:31:01;;;;;;;11.27;1.85;;;;;;;;;;5033720;28;20029;-63
2022/10/25 05:33:27;;;;;;;17.90;2.85;;;;;;;;;;5021910;28;20401;-63
2022/10/25 05:35:53;;;;;;;10.18;3.25;;;;;;;;;;5033815;28;20025;-63
2022/10/25 05:38:19;;;;;;;10.63;2.28;;;;;;;;;;5033698;28;20021;-63
2022/10/25 05:40:52;;;;;;;13.30;2.22;;;;;;;;;;5033887;28;20478;-63
2022/10/25 05:43:18;;;;;;;15.60;2.35;;;;;;;;;;5032943;28;20034;-63
2022/10/25 05:45:44;;;;;;;6.10;1.90;;;;;;;;;;5037934;28;20048;-63
2022/10/25 05:48:11;;;;;;;10.32;4.43;;;;;;;;;;5024716;28;20386;-63
2022/10/25 05:50:37;;;;;;;8.23;1.52;;;;;;;;;;5031196;28;20051;-63
2022/10/25 05:53:03;;;;;;;11.65;1.90;;;;;;;;;;5028342;28;20030;-63
2022/10/25 05:55:29;;;;;;;8.75;1.95;;;;;;;;;;5024976;28;20026;-63
2022/10/25 05:57:55;;;;;;;14.45;2.05;;;;;;;;;;5026420;28;20018;-63
2022/10/25 06:00:21;;;;;;;13.98;2.65;;;;;;;;;;5023611;28;20018;-63
2022/10/25 06:02:47;;;;;;;15.00;3.22;;;;;;;;;;5026692;28;20030;-63
2022/10/25 06:05:13;;;;;;;17.17;2.20;;;;;;;;;;5030287;28;20367;-63
2022/10/25 06:07:40;;;;;;;8.50;1.52;;;;;;;;;;5029890;28;20025;-63
2022/10/25 06:10:06;;;;;;;9.00;1.95;;;;;;;;;;5034105;28;20037;-63
2022/10/25 06:12:32;;;;;;;6.45;1.88;;;;;;;;;;5032707;28;20029;-63
2022/10/25 06:14:58;;;;;;;12.02;1.77;;;;;;;;;;5031733;28;20033;-63
2022/10/25 06:17:24;;;;;;;15.18;2.53;;;;;;;;;;5035802;28;20053;-63
2022/10/25 06:19:50;;;;;;;7.88;2.33;;;;;;;;;;5027911;28;20375;-63
2022/10/25 06:22:16;;;;;;;7.93;2.08;;;;;;;;;;5032340;28;20025;-63
2022/10/25 06:24:42;;;;;;;16.65;3.80;;;;;;;;;;5030947;28;20091;-63
2022/10/25 06:27:09;;;;;;;8.60;1.73;;;;;;;;;;5027806;28;20033;-63
2022/10/25 06:29:35;;;;;;;7.18;2.22;;;;;;;;;;5032258;28;20422;-63
2022/10/25 06:32:01;;;;;;;10.32;2.55;;;;;;;;;;5027010;28;20402;-63
2022/10/25 06:34:27;;;;;;;6.22;2.13;;;;;;;;;;5030380;28;20025;-63
2022/10/25 06:36:53;;;;;;;6.43;2.80;;;;;;;;;;5018482;28;20064;-63
2022/10/25 06:39:19;;;;;;;5.28;2.20;;;;;;;;;;5032816;28;20071;-64
2022/10/25 06:41:45;;;;;;;16.63;2.78;;;;;;;;;;5030430;28;20025;-64
2022/10/25 06:44:11;;;;;;;8.82;2.22;;;;;;;;;;5030470;28;20029;-63
2022/10/25 06:46:38;;;;;;;10.27;3.25;;;;;;;;;;5029050;28;20426;-63
2022/10/25 06:49:05;;;;;;;11.27;3.10;;;;;;;;;;5031075;28;20049;-63
2022/10/25 06:51:32;;;;;;;9.23;3.22;;;;;;;;;;5030245;28;20036;-64
2022/10/25 06:53:59;;;;;;;12.23;3.40;;;;;;;;;;5027946;28;20022;-63
2022/10/25 06:56:28;;;;;;;7.95;3.00;;;;;;;;;;5026201;28;20029;-63
2022/10/25 06:58:54;;;;;;;17.67;3.78;;;;;;;;;;5037180;28;20026;-63
2022/10/25 07:01:21;;;;;;;10.48;2.97;;;;;;;;;;5028539;28;20025;-63
2022/10/25 07:03:49;;;;;;;11.35;3.17;;;;;;;;;;5028193;28;20026;-63
2022/10/25 07:06:17;;;;;;;12.90;3.25;;;;;;;;;;5031136;28;20104;-63
2022/10/25 07:08:44;;;;;;;14.43;2.83;;;;;;;;;;5030518;28;20489;-63
2022/10/25 07:11:15;;;;;;;12.85;2.80;;;;;;;;;;5028882;28;20486;-63
2022/10/25 07:13:41;;;;;;;12.45;3.35;;;;;;;;;;5023834;28;20049;-63
2022/10/25 07:16:08;;;;;;;11.88;2.50;;;;;;;;;;5027364;28;20028;-63
2022/10/25 07:18:35;;;;;;;12.30;2.95;;;;;;;;;;5026650;28;20037;-63
2022/10/25 07:21:02;;;;;;;9.70;3.33;;;;;;;;;;5030593;28;20064;-63
2022/10/25 07:23:29;;;;;;;14.13;3.20;;;;;;;;;;5032541;28;20036;-63
2022/10/25 07:25:55;;;;;;;9.68;2.15;;;;;;;;;;5031647;28;20033;-63
2022/10/25 07:28:21;;;;;;;7.95;2.67;;;;;;;;;;5035736;28;20493;-63
2022/10/25 07:30:48;;;;;;;11.70;2.15;;;;;;;;;;5035697;28;20029;-63
2022/10/25 07:33:15;;;;;;;16.35;3.10;;;;;;;;;;5035497;28;20160;-63
2022/10/25 07:35:44;;;;;;;10.75;2.70;;;;;;;;;;5034488;28;20029;-63
2022/10/25 07:38:11;;;;;;;14.10;3.22;;;;;;;;;;5032007;28;20033;-63
2022/10/25 07:40:37;;;;;;;12.55;3.22;;;;;;;;;;5034168;28;20028;-63
2022/10/25 07:43:03;;;;;;;17.73;3.30;;;;;;;;;;5033757;28;20376;-63
2022/10/25 07:45:29;;;;;;;19.33;4.43;;;;;;;;;;5035135;28;20030;-63
2022/10/25 07:47:55;;;;;;;13.32;2.85;;;;;;;;;;5036290;28;20489;-63
2022/10/25 07:50:21;;;;;;;14.38;2.63;;;;;;;;;;5037238;28;20084;-63
2022/10/25 07:52:47;;;;;;;13.90;2.88;;;;;;;;;;5035036;28;20040;-63
2022/10/25 07:55:14;;;;;;;7.78;2.70;;;;;;;;;;5037726;28;20106;-63
2022/10/25 07:57:40;;;;;;;14.82;3.28;;;;;;;;;;5034556;28;20033;-63
2022/10/25 08:00:07;;;;;;;14.25;2.75;;;;;;;;;;5031759;28;20426;-63
2022/10/25 08:02:33;;;;;;;15.43;3.75;;;;;;;;;;5032385;28;20009;-64
2022/10/25 08:05:00;;;;;;;15.68;5.28;;;;;;;;;;5032818;28;20091;-64
2022/10/25 08:07:26;;;;;;;21.63;8.57;;;;;;;;;;5024614;28;20032;-64
2022/10/25 08:09:53;;;;;;;22.13;8.10;;;;;;;;;;5029715;28;20068;-63
2022/10/25 08:12:19;;;;;;;29.88;9.98;;;;;;;;;;5026111;28;20446;-63
2022/10/25 08:14:45;;;;;;;28.35;10.80;;;;;;;;;;5024797;28;20397;-63
2022/10/25 08:17:11;;;;;;;19.83;7.20;;;;;;;;;;5026782;28;20057;-63
2022/10/25 08:19:37;;;;;;;19.35;7.13;;;;;;;;;;5024036;28;20025;-63
2022/10/25 08:22:03;;;;;;;18.80;4.95;;;;;;;;;;5024194;28;20021;-63
2022/10/25 08:24:31;;;;;;;12.85;3.53;;;;;;;;;;5026554;28;20429;-63
2022/10/25 08:26:57;;;;;;;14.50;3.35;;;;;;;;;;5026817;28;20026;-63
2022/10/25 08:29:23;;;;;;;16.00;4.00;;;;;;;;;;5026168;28;20029;-63
2022/10/25 08:31:49;;;;;;;14.18;2.85;;;;;;;;;;5021184;28;20113;-63
2022/10/25 08:34:15;;;;;;;16.38;3.55;;;;;;;;;;5023400;28;20038;-63
2022/10/25 08:36:41;;;;;;;10.68;3.35;;;;;;;;;;5034002;28;20021;-63
2022/10/25 08:39:07;;;;;;;16.02;3.88;;;;;;;;;;5025461;28;20034;-63
2022/10/25 08:41:47;;;;;;;23.85;4.38;;;;;;;;;;5026486;28;20032;-63
2022/10/25 08:44:32;;;;;;;23.15;4.40;;;;;;;;;;5028310;28;20040;-63
2022/10/25 08:47:07;;;;;;;12.50;3.60;;;;;;;;;;5027207;28;20034;-63
2022/10/25 08:49:39;;;;;;;15.13;3.05;;;;;;;;;;5032880;28;20025;-63
2022/10/25 08:52:07;;;;;;;22.35;4.63;;;;;;;;;;5024688;28;20865;-63
2022/10/25 08:54:35;;;;;;;31.23;3.72;;;;;;;;;;5022679;28;20037;-63
2022/10/25 08:57:22;;;;;;;11.80;3.17;;;;;;;;;;5027836;28;20034;-63
2022/10/25 08:59:50;;;;;;;22.92;3.55;;;;;;;;;;5031089;28;20104;-63
2022/10/25 09:02:18;;;;;;;11.40;2.70;;;;;;;;;;5030846;28;20022;-63
2022/10/25 09:04:44;;;;;;;18.95;2.88;;;;;;;;;;5030899;28;20030;-63
2022/10/25 09:07:13;;;;;;;17.75;3.17;;;;;;;;;;5028190;28;20111;-63
2022/10/25 09:09:53;;;;;;;16.50;2.90;;;;;;;;;;5031326;28;20389;-63
2022/10/25 09:12:19;;;;;;;14.38;2.83;;;;;;;;;;5030244;28;20068;-63
2022/10/25 09:14:45;;;;;;;22.27;2.80;;;;;;;;;;5027389;28;20033;-63
2022/10/25 09:17:16;;;;;;;16.10;2.38;;;;;;;;;;5031341;28;20410;-63
2022/10/25 09:19:44;;;;;;;;;;;;;;;;;;5029162;28;20025;-63
2022/10/25 09:22:25;;;;;;;24.42;3.15;;;;;;;;;;5027945;28;19913;-63
2022/10/25 09:24:59;;;;;;;14.45;2.40;;;;;;;;;;5032395;28;20079;-63
2022/10/25 09:27:35;;;;;;;19.67;3.08;;;;;;;;;;5026101;28;20509;-63
2022/10/25 09:30:09;;;;;;;21.20;2.67;;;;;;;;;;5028841;28;20108;-63
2022/10/25 09:32:40;;;;;;;16.70;3.30;;;;;;;;;;5026276;28;20037;-63
2022/10/25 09:35:12;;;;;;;21.95;2.75;;;;;;;;;;5028952;28;20116;-63
2022/10/25 09:37:44;;;;;;;17.85;3.03;;;;;;;;;;5022237;28;20037;-64
2022/10/25 09:40:25;;;;;;;9.85;2.67;;;;;;;;;;5031485;28;20032;-64
2022/10/25 09:42:56;;;;;;;13.23;2.28;;;;;;;;;;5029952;28;20025;-64
2022/10/25 09:45:31;;;;;;;13.65;2.88;;;;;;;;;;5034139;28;20060;-64
2022/10/25 09:48:02;;;;;;;15.98;2.70;;;;;;;;;;5024557;28;20037;-64
2022/10/25 09:50:31;;;;;;;24.83;3.40;;;;;;;;;;5026853;28;20040;-63
2022/10/25 09:53:01;;;;;;;14.55;2.78;;;;;;;;;;5032482;28;20100;-63
2022/10/25 09:55:39;;;;;;;13.30;3.08;;;;;;;;;;5030490;28;20025;-63
2022/10/25 09:58:06;;;;;;;13.77;2.97;;;;;;;;;;5032281;28;20044;-63
2022/10/25 10:00:33;;;;;;;13.10;2.15;;;;;;;;;;5026904;28;20021;-63
2022/10/25 10:02:59;;;;;;;13.18;2.70;;;;;;;;;;5031484;28;20370;-63
2022/10/25 10:05:25;;;;;;;17.65;2.53;;;;;;;;;;5028045;28;20038;-63
2022/10/25 10:07:53;;;;;;;10.35;2.17;;;;;;;;;;5027434;28;20057;-63
2022/10/25 10:10:32;;;;;;;10.75;2.63;;;;;;;;;;5047793;28;20224;-62
2022/10/25 10:12:58;;;;;;;16.15;2.63;;;;;;;;;;5027586;28;20534;-62
2022/10/25 10:15:29;;;;;;;13.43;2.53;;;;;;;;;;5028297;28;20544;-62
2022/10/25 10:18:14;;;;;;;12.70;2.63;;;;;;;;;;5027181;28;20087;-62
2022/10/25 10:20:54;;;;;;;15.70;3.78;;;;;;;;;;5027265;28;20028;-62
2022/10/25 10:23:20;;;;;;;7.75;1.65;;;;;;;;;;5027752;28;20041;-62
2022/10/25 10:25:47;;;;;;;16.98;2.95;;;;;;;;;;5030232;28;20031;-62
2022/10/25 10:28:14;;;;;;;10.85;2.97;;;;;;;;;;5028387;28;20053;-62
2022/10/25 10:30:40;;;;;;;13.00;2.30;;;;;;;;;;5034288;28;20041;-62
2022/10/25 10:33:08;;;;;;;9.77;2.20;;;;;;;;;;5029259;28;20481;-62
2022/10/25 10:35:35;;;;;;;7.88;1.77;;;;;;;;;;5031135;28;20100;-62
2022/10/25 10:38:13;;;;;;;13.80;4.72;;;;;;;;;;5028590;28;20083;-63
2022/10/25 10:40:39;;;;;;;9.70;2.13;;;;;;;;;;5025136;28;20026;-62
2022/10/25 10:43:21;;;;;;;13.23;2.30;;;;;;;;;;5028574;28;20030;-62
2022/10/25 10:45:49;;;;;;;7.40;1.92;;;;;;;;;;5026303;28;20463;-62
2022/10/25 10:48:20;;;;;;;10.93;2.05;;;;;;;;;;5028743;28;20375;-62
2022/10/25 10:50:50;;;;;;;9.48;2.13;;;;;;;;;;5029337;28;20195;-62
2022/10/25 10:53:28;;;;;;;9.23;1.95;;;;;;;;;;5028351;28;20026;-62
2022/10/25 10:55:55;;;;;;;6.45;2.03;;;;;;;;;;5029253;28;20498;-62
2022/10/25 10:58:24;;;;;;;10.80;2.53;;;;;;;;;;5027000;28;20061;-62
2022/10/25 11:00:56;;;;;;;14.50;3.42;;;;;;;;;;5029459;28;20123;-62
2022/10/25 11:03:40;;;;;;;19.80;5.57;;;;;;;;;;5026933;28;20509;-62
2022/10/25 11:06:25;;;;;;;15.70;2.20;;;;;;;;;;5029083;28;20044;-62
2022/10/25 11:09:16;;;;;;;8.95;1.90;;;;;;;;;;5026395;28;20048;-62
2022/10/25 11:11:43;;;;;;;6.63;1.88;;;;;;;;;;5025274;28;20026;-62
2022/10/25 11:14:16;;;;;;;8.55;2.33;;;;;;;;;;5026863;28;20450;-62
2022/10/25 11:16:42;;;;;;;9.48;1.88;;;;;;;;;;5027789;28;20460;-62
2022/10/25 11:19:22;;;;;;;12.43;2.17;;;;;;;;;;5025969;28;20033;-62
2022/10/25 11:21:51;;;;;;;19.30;2.70;;;;;;;;;;5008047;28;20033;-63
2022/10/25 11:24:36;;;;;;;13.60;2.10;;;;;;;;;;5014956;28;20048;-62
2022/10/25 11:27:22;;;;;;;10.60;2.42;;;;;;;;;;5011160;28;20478;-62
2022/10/25 11:30:07;;;;;;;14.57;2.45;;;;;;;;;;5009918;28;20045;-62
2022/10/25 11:32:46;;;;;;;14.38;2.58;;;;;;;;;;5011234;28;20044;-62
2022/10/25 11:35:24;;;;;;;12.45;2.28;;;;;;;;;;5012529;28;20029;-62
2022/10/25 11:38:01;;;;;;;7.97;3.00;;;;;;;;;;5011476;28;20018;-62
2022/10/25 11:40:43;;;;;;;9.80;2.90;;;;;;;;;;5010111;28;20382;-62
2022/10/25 11:43:22;;;;;;;10.10;1.70;;;;;;;;;;5008313;28;20033;-62
2022/10/25 11:45:56;;;;;;;14.70;2.88;;;;;;;;;;5009051;28;20117;-62
2022/10/25 11:48:34;;;;;;;12.38;2.30;;;;;;;;;;5011092;28;20084;-62
2022/10/25 11:51:30;;;;;;;10.57;2.42;;;;;;;;;;5008048;28;20029;-62
2022/10/25 11:54:05;;;;;;;14.95;2.47;;;;;;;;;;5008417;28;20036;-62
2022/10/25 11:56:36;;;;;;;8.43;2.55;;;;;;;;;;5008084;28;20033;-62
2022/10/25 11:59:11;;;;;;;14.15;2.53;;;;;;;;;;5005247;28;20406;-62
2022/10/25 12:01:48;;;;;;;16.10;2.90;;;;;;;;;;5006559;28;20037;-62
2022/10/25 12:04:14;;;;;;;10.77;2.00;;;;;;;;;;5008571;28;20038;-62
2022/10/25 12:07:00;;;;;;;12.60;2.50;;;;;;;;;;5008433;28;20117;-62
2022/10/25 12:09:29;;;;;;;9.70;1.98;;;;;;;;;;4935424;29;20048;-62
2022/10/25 12:11:59;;;;;;;15.50;2.50;;;;;;;;;;4935490;29;20460;-62
2022/10/25 12:14:38;;;;;;;14.50;2.63;;;;;;;;;;4933627;29;20035;-62
2022/10/25 12:17:06;;;;;;;11.80;2.35;;;;;;;;;;4933828;29;20052;-62
2022/10/25 12:19:39;;;;;;;30.92;3.20;;;;;;;;;;4933312;29;20110;-62
2022/10/25 12:22:08;;;;;;;10.00;2.13;;;;;;;;;;4932225;29;20040;-62
2022/10/25 12:24:36;;;;;;;12.75;2.38;;;;;;;;;;4930718;29;20041;-62
2022/10/25 12:27:03;;;;;;;15.10;2.22;;;;;;;;;;4933690;29;20633;-62
2022/10/25 12:29:33;;;;;;;9.68;2.05;;;;;;;;;;4931911;29;20575;-62
2022/10/25 12:32:01;;;;;;;11.60;2.65;;;;;;;;;;4933737;28;20135;-62
2022/10/25 12:34:32;;;;;;;10.35;1.98;;;;;;;;;;4933069;29;20064;-62
2022/10/25 12:37:08;;;;;;;13.68;2.33;;;;;;;;;;4930709;29;20091;-62
2022/10/25 12:39:40;;;;;;;10.85;2.17;;;;;;;;;;4933464;29;20902;-62
2022/10/25 12:42:06;;;;;;;;;;;;;;;;;;4931669;29;20459;-62
2022/10/25 12:44:32;;;;;;;11.73;2.20;;;;;;;;;;4932559;29;19907;-62
2022/10/25 12:47:02;;;;;;;13.65;2.78;;;;;;;;;;4987401;28;20041;-62
2022/10/25 12:49:40;;;;;;;9.93;1.80;;;;;;;;;;5011651;28;20076;-62
2022/10/25 12:52:26;;;;;;;11.30;1.92;;;;;;;;;;5011976;28;20057;-62
2022/10/25 12:55:05;;;;;;;9.63;2.65;;;;;;;;;;5010509;28;20104;-62
2022/10/25 12:57:47;;;;;;;7.63;1.60;;;;;;;;;;5010994;28;20030;-62
2022/10/25 13:00:17;;;;;;;10.77;2.47;;;;;;;;;;5009876;28;20038;-62
2022/10/25 13:02:49;;;;;;;9.45;1.83;;;;;;;;;;5009566;28;20037;-62
2022/10/25 13:05:34;;;;;;;9.23;2.40;;;;;;;;;;5010504;28;20037;-62
2022/10/25 13:08:02;;;;;;;10.15;2.10;;;;;;;;;;5009614;28;20034;-62
2022/10/25 13:10:31;;;;;;;13.60;2.53;;;;;;;;;;5010191;28;20038;-62
2022/10/25 13:13:07;;;;;;;6.75;1.88;;;;;;;;;;5010789;28;20121;-62
2022/10/25 13:15:44;;;;;;;7.50;1.95;;;;;;;;;;5010640;28;20166;-62
2022/10/25 13:18:25;;;;;;;13.40;2.40;;;;;;;;;;5013346;28;20026;-62
2022/10/25 13:20:51;;;;;;;11.68;1.90;;;;;;;;;;5015696;28;20485;-62
2022/10/25 13:23:36;;;;;;;7.60;2.08;;;;;;;;;;5008884;28;21702;-62
2022/10/25 13:26:06;;;;;;;9.90;2.17;;;;;;;;;;5010161;28;20072;-62
2022/10/25 13:28:42;;;;;;;8.50;2.20;;;;;;;;;;5006820;28;20116;-62
2022/10/25 13:31:29;;;;;;;8.75;2.40;;;;;;;;;;5009103;28;20109;-62
2022/10/25 13:34:15;;;;;;;5.00;2.58;;;;;;;;;;5011628;28;20022;-62
2022/10/25 13:36:47;;;;;;;9.65;2.63;;;;;;;;;;5009591;28;20018;-62
2022/10/25 13:39:21;;;;;;;7.03;2.40;;;;;;;;;;5009410;28;20029;-62
2022/10/25 13:41:47;;;;;;;8.82;3.47;;;;;;;;;;5010665;28;20033;-62
2022/10/25 13:44:20;;;;;;;7.93;2.30;;;;;;;;;;5009564;28;20038;-62
2022/10/25 13:46:47;;;;;;;7.45;2.80;;;;;;;;;;5013100;28;20014;-62
2022/10/25 13:49:25;;;;;;;10.85;2.72;;;;;;;;;;5007250;28;20030;-62
2022/10/25 13:51:54;;;;;;;5.13;2.72;;;;;;;;;;5010908;28;20052;-62
2022/10/25 13:54:20;;;;;;;11.48;2.85;;;;;;;;;;5006938;28;20054;-62
2022/10/25 13:56:50;;;;;;;7.85;2.78;;;;;;;;;;5011321;28;20075;-62
2022/10/25 13:59:52;;;;;;;6.47;2.47;;;;;;;;;;5009008;28;20053;-62
2022/10/25 14:02:19;;;;;;;6.07;2.83;;;;;;;;;;5004717;28;20058;-62
2022/10/25 14:04:45;;;;;;;5.88;2.65;;;;;;;;;;5005072;28;20037;-62
2022/10/25 14:07:30;;;;;;;12.45;2.95;;;;;;;;;;5005067;28;20033;-62
2022/10/25 14:09:57;;;;;;;13.55;2.85;;;;;;;;;;5002217;28;20042;-62
2022/10/25 14:12:24;;;;;;;14.50;4.03;;;;;;;;;;4999778;28;20530;-62
2022/10/25 14:14:56;;;;;;;14.18;3.10;;;;;;;;;;5007319;28;20153;-61
2022/10/25 14:17:41;;;;;;;6.27;2.70;;;;;;;;;;5007153;28;20056;-62
2022/10/25 14:20:08;;;;;;;14.10;4.75;;;;;;;;;;5000963;28;20038;-62
2022/10/25 14:22:41;;;;;;;11.50;3.35;;;;;;;;;;5007306;28;20080;-62
2022/10/25 14:25:19;;;;;;;7.07;2.60;;;;;;;;;;5007032;28;20030;-62
2022/10/25 14:27:45;;;;;;;10.68;3.70;;;;;;;;;;5005526;28;20036;-62
2022/10/25 14:30:21;;;;;;;7.40;3.10;;;;;;;;;;5004776;28;20518;-62
2022/10/25 14:32:49;;;;;;;15.30;3.15;;;;;;;;;;5004578;28;20076;-62
2022/10/25 14:35:15;;;;;;;15.05;4.35;;;;;;;;;;5003106;28;20072;-62
2022/10/25 14:37:42;;;;;;;11.15;3.53;;;;;;;;;;5009872;28;20014;-62
2022/10/25 14:40:18;;;;;;;8.73;3.30;;;;;;;;;;5009253;28;20133;-62
2022/10/25 14:42:45;;;;;;;6.78;2.80;;;;;;;;;;5006303;28;20037;-62
2022/10/25 14:45:26;;;;;;;6.50;2.65;;;;;;;;;;5007760;28;20026;-62
2022/10/25 14:47:52;;;;;;;8.40;2.83;;;;;;;;;;5009313;28;20022;-62
2022/10/25 14:50:25;;;;;;;5.78;2.25;;;;;;;;;;5005783;28;20041;-62